createdAt,value
2018-09-19T00:00:00.865Z,16.00
2018-09-19T00:02:28.609Z,20.77
2018-09-19T00:04:56.468Z,21.47
2018-09-19T00:07:24.332Z,16.67
2018-09-19T00:09:52.172Z,21.80
2018-09-19T00:12:21.198Z,28.10
2018-09-19T00:14:48.997Z,13.60
2018-09-19T00:17:17.342Z,28.63
2018-09-19T00:19:45.261Z,15.33
2018-09-19T00:22:13.614Z,17.03
2018-09-19T00:24:42.255Z,19.93
2018-09-19T00:27:10.535Z,15.00
2018-09-19T00:29:39.165Z,24.10
2018-09-19T00:32:07.138Z,14.20
2018-09-19T00:34:35.355Z,31.23
2018-09-19T00:37:03.383Z,18.43
2018-09-19T00:39:31.962Z,14.47
2018-09-19T00:42:00.134Z,18.80
2018-09-19T00:44:27.859Z,22.67
2018-09-19T00:46:55.806Z,21.93
2018-09-19T00:49:23.892Z,23.40
2018-09-19T00:51:51.830Z,24.33
2018-09-19T00:54:20.422Z,17.77
2018-09-19T00:56:49.492Z,22.50
2018-09-19T00:59:17.195Z,10.77
2018-09-19T01:01:44.952Z,16.43
2018-09-19T01:04:13.425Z,21.80
2018-09-19T01:06:42.557Z,22.00
2018-09-19T01:09:11.355Z,13.80
2018-09-19T01:11:39.488Z,16.57
2018-09-19T01:14:07.282Z,12.10
2018-09-19T01:16:35.124Z,22.03
2018-09-19T01:19:02.954Z,12.03
2018-09-19T01:21:30.899Z,21.60
2018-09-19T01:23:58.925Z,16.67
2018-09-19T01:26:26.899Z,17.87
2018-09-19T01:28:54.886Z,19.07
2018-09-19T01:31:23.717Z,27.20
2018-09-19T01:33:51.627Z,19.40
2018-09-19T01:36:19.646Z,17.93
2018-09-19T01:38:47.705Z,11.77
2018-09-19T01:41:15.474Z,11.37
2018-09-19T01:43:43.221Z,16.97
2018-09-19T01:46:11.265Z,17.40
2018-09-19T01:48:39.099Z,23.47
2018-09-19T01:51:06.892Z,20.90
2018-09-19T01:53:34.755Z,14.80
2018-09-19T01:56:02.584Z,19.50
2018-09-19T01:58:31.142Z,12.00
2018-09-19T02:00:59.741Z,14.30
2018-09-19T02:03:27.706Z,21.37
2018-09-19T02:05:55.660Z,22.53
2018-09-19T02:08:23.882Z,19.03
2018-09-19T02:10:51.855Z,13.33
2018-09-19T02:13:20.199Z,15.83
2018-09-19T02:15:48.221Z,12.97
2018-09-19T02:18:16.109Z,10.67
2018-09-19T02:20:44.122Z,15.83
2018-09-19T02:23:12.574Z,13.63
2018-09-19T02:25:41.227Z,23.43
2018-09-19T02:28:09.352Z,16.67
2018-09-19T02:30:37.243Z,14.23
2018-09-19T02:33:05.390Z,18.60
2018-09-19T02:35:33.133Z,27.80
2018-09-19T02:38:00.850Z,13.80
2018-09-19T02:40:30.046Z,22.93
2018-09-19T02:42:57.910Z,25.90
2018-09-19T02:45:25.733Z,12.70
2018-09-19T02:47:53.569Z,10.53
2018-09-19T02:50:21.383Z,9.27
2018-09-19T02:52:54.986Z,13.70
2018-09-19T02:55:23.322Z,19.23
2018-09-19T02:57:51.538Z,16.07
2018-09-19T03:00:20.072Z,15.27
2018-09-19T03:02:48.639Z,19.70
2018-09-19T03:05:16.560Z,18.83
2018-09-19T03:07:44.636Z,18.03
2018-09-19T03:10:12.369Z,15.90
2018-09-19T03:12:40.152Z,14.03
2018-09-19T03:15:08.848Z,15.10
2018-09-19T03:17:36.862Z,10.40
2018-09-19T03:20:05.287Z,20.57
2018-09-19T03:22:33.304Z,24.67
2018-09-19T03:25:02.204Z,15.73
2018-09-19T03:27:30.201Z,12.00
2018-09-19T03:29:58.172Z,14.13
2018-09-19T03:32:26.913Z,23.63
2018-09-19T03:34:54.601Z,17.20
2018-09-19T03:37:22.419Z,27.10
2018-09-19T03:39:50.407Z,10.80
2018-09-19T03:42:18.609Z,10.30
2018-09-19T03:44:46.878Z,14.93
2018-09-19T03:47:14.913Z,16.63
2018-09-19T03:49:43.440Z,20.70
2018-09-19T03:52:12.119Z,8.80
2018-09-19T03:54:40.328Z,12.70
2018-09-19T03:57:08.829Z,20.07
2018-09-19T03:59:36.477Z,20.07
2018-09-19T04:02:04.258Z,18.03
2018-09-19T04:04:32.936Z,20.57
2018-09-19T04:07:02.451Z,17.30
2018-09-19T04:09:30.950Z,15.90
2018-09-19T04:11:58.852Z,11.43
2018-09-19T04:14:27.321Z,18.70
2018-09-19T04:16:55.216Z,23.97
2018-09-19T04:19:23.792Z,16.93
2018-09-19T04:21:52.967Z,14.73
2018-09-19T04:24:20.668Z,25.60
2018-09-19T04:26:49.274Z,11.63
2018-09-19T04:29:17.287Z,17.77
2018-09-19T04:31:45.476Z,17.37
2018-09-19T04:34:14.265Z,20.63
2018-09-19T04:36:42.744Z,11.90
2018-09-19T04:39:12.781Z,16.17
2018-09-19T04:41:41.388Z,14.87
2018-09-19T04:44:09.760Z,21.43
2018-09-19T04:46:38.274Z,16.63
2018-09-19T04:49:06.608Z,14.87
2018-09-19T04:51:34.425Z,17.00
2018-09-19T04:54:03.418Z,15.23
2018-09-19T04:56:31.564Z,23.53
2018-09-19T04:58:59.247Z,17.30
2018-09-19T05:01:26.998Z,10.63
2018-09-19T05:03:54.895Z,19.23
2018-09-19T05:06:23.168Z,21.60
2018-09-19T05:08:50.989Z,26.17
2018-09-19T05:11:18.929Z,16.63
2018-09-19T05:13:47.350Z,26.20
2018-09-19T05:16:15.992Z,18.13
2018-09-19T05:18:43.729Z,14.33
2018-09-19T05:21:11.615Z,19.13
2018-09-19T05:23:39.717Z,24.33
2018-09-19T05:26:07.637Z,16.43
2018-09-19T05:28:35.522Z,19.07
2018-09-19T05:31:03.318Z,22.73
2018-09-19T05:33:31.373Z,15.07
2018-09-19T05:36:00.948Z,15.87
2018-09-19T05:38:28.846Z,19.10
2018-09-19T05:40:57.141Z,29.50
2018-09-19T05:43:25.669Z,14.27
2018-09-19T05:45:53.662Z,20.93
2018-09-19T05:48:22.257Z,24.43
2018-09-19T05:50:50.019Z,25.80
2018-09-19T05:53:18.934Z,16.33
2018-09-19T05:55:46.698Z,24.30
2018-09-19T05:58:14.253Z,15.20
2018-09-19T06:00:41.975Z,24.80
2018-09-19T06:03:10.098Z,15.20
2018-09-19T06:05:39.375Z,20.97
2018-09-19T06:08:07.133Z,10.57
2018-09-19T06:10:35.230Z,16.83
2018-09-19T06:13:03.236Z,29.50
2018-09-19T06:15:30.818Z,16.80
2018-09-19T06:17:58.400Z,22.27
2018-09-19T06:20:26.030Z,18.27
2018-09-19T06:22:53.590Z,11.63
2018-09-19T06:25:21.185Z,17.77
2018-09-19T06:27:48.790Z,20.43
2018-09-19T06:30:16.430Z,15.63
2018-09-19T06:32:43.999Z,28.47
2018-09-19T06:35:11.683Z,14.77
2018-09-19T06:37:39.231Z,16.30
2018-09-19T06:40:06.985Z,10.10
2018-09-19T06:42:34.584Z,22.90
2018-09-19T06:45:02.225Z,20.10
2018-09-19T06:47:29.832Z,13.83
2018-09-19T06:49:57.417Z,26.80
2018-09-19T06:52:25.001Z,15.30
2018-09-19T06:54:52.566Z,19.57
2018-09-19T06:57:20.260Z,13.27
2018-09-19T06:59:47.829Z,17.50
2018-09-19T07:02:15.605Z,7.53
2018-09-19T07:04:43.250Z,11.80
2018-09-19T07:07:10.847Z,17.93
2018-09-19T07:09:38.687Z,17.83
2018-09-19T07:12:06.463Z,12.87
2018-09-19T07:14:34.197Z,16.50
2018-09-19T07:17:01.773Z,18.63
2018-09-19T07:19:29.369Z,13.23
2018-09-19T07:21:56.952Z,15.87
2018-09-19T07:24:24.458Z,19.63
2018-09-19T07:26:52.082Z,21.83
2018-09-19T07:29:20.590Z,16.67
2018-09-19T07:31:49.043Z,22.20
2018-09-19T07:34:17.795Z,15.07
2018-09-19T07:36:46.886Z,16.20
2018-09-19T07:39:15.887Z,19.53
2018-09-19T07:41:43.883Z,22.97
2018-09-19T07:44:12.418Z,17.53
2018-09-19T07:46:40.477Z,20.90
2018-09-19T07:49:10.037Z,22.00
2018-09-19T07:51:38.532Z,17.53
2018-09-19T07:54:06.361Z,18.93
2018-09-19T07:56:35.494Z,23.60
2018-09-19T07:59:03.951Z,16.90
2018-09-19T08:01:32.466Z,16.47
2018-09-19T08:04:01.254Z,21.13
2018-09-19T08:06:29.408Z,13.87
2018-09-19T08:08:57.343Z,15.87
2018-09-19T08:11:25.677Z,18.20
2018-09-19T08:13:53.898Z,18.00
2018-09-19T08:16:21.885Z,23.00
2018-09-19T08:18:49.846Z,18.47
2018-09-19T08:21:17.743Z,15.90
2018-09-19T08:23:45.581Z,13.77
2018-09-19T08:26:15.109Z,21.90
2018-09-19T08:28:44.056Z,26.77
2018-09-19T08:31:11.822Z,15.20
2018-09-19T08:33:40.163Z,19.33
2018-09-19T08:36:08.097Z,16.83
2018-09-19T08:38:37.505Z,21.73
2018-09-19T08:41:05.350Z,22.50
2018-09-19T08:43:32.933Z,28.47
2018-09-19T08:46:00.501Z,16.13
2018-09-19T08:48:28.050Z,11.97
2018-09-19T08:50:55.612Z,22.17
2018-09-19T08:53:23.195Z,13.63
2018-09-19T08:55:50.774Z,13.07
2018-09-19T08:58:18.633Z,15.53
2018-09-19T09:00:46.197Z,12.23
2018-09-19T09:03:13.977Z,16.53
2018-09-19T09:05:41.526Z,13.83
2018-09-19T09:08:09.302Z,17.07
2018-09-19T09:10:36.962Z,13.57
2018-09-19T09:13:04.518Z,15.13
2018-09-19T09:15:32.096Z,12.17
2018-09-19T09:17:59.761Z,11.80
2018-09-19T09:20:27.384Z,14.57
2018-09-19T09:22:55.073Z,14.63
2018-09-19T09:25:22.603Z,16.73
2018-09-19T09:27:50.209Z,14.07
2018-09-19T09:30:17.899Z,14.43
2018-09-19T09:32:45.464Z,10.53
2018-09-19T09:35:13.114Z,11.10
2018-09-19T09:37:40.653Z,16.37
2018-09-19T09:40:09.124Z,10.27
2018-09-19T09:42:36.981Z,19.17
2018-09-19T09:45:04.733Z,8.27
2018-09-19T09:47:32.533Z,7.40
2018-09-19T09:50:00.153Z,21.30
2018-09-19T09:52:27.692Z,11.43
2018-09-19T09:54:55.311Z,16.47
2018-09-19T09:57:22.877Z,18.27
2018-09-19T09:59:50.465Z,7.10
2018-09-19T10:02:18.029Z,8.93
2018-09-19T10:04:45.618Z,15.30
2018-09-19T10:07:13.213Z,4.33
2018-09-19T10:09:40.793Z,7.73
2018-09-19T10:12:08.326Z,7.40
2018-09-19T10:14:35.854Z,3.60
2018-09-19T10:17:03.413Z,7.90
2018-09-19T10:19:31.087Z,9.50
2018-09-19T10:21:58.807Z,10.77
2018-09-19T10:24:26.606Z,5.83
2018-09-19T10:26:55.085Z,9.47
2018-09-19T10:29:23.131Z,7.13
2018-09-19T10:31:50.999Z,11.27
2018-09-19T10:34:19.603Z,8.87
2018-09-19T10:36:47.411Z,7.97
2018-09-19T10:39:15.669Z,7.50
2018-09-19T10:41:43.521Z,8.40
2018-09-19T10:44:11.343Z,4.70
2018-09-19T10:46:39.838Z,3.60
2018-09-19T10:49:08.315Z,4.80
2018-09-19T10:51:36.354Z,6.50
2018-09-19T10:54:04.349Z,7.63
2018-09-19T10:56:32.265Z,4.53
2018-09-19T10:59:00.855Z,7.70
2018-09-19T11:01:28.894Z,16.03
2018-09-19T11:03:56.819Z,8.90
2018-09-19T11:06:25.461Z,9.30
2018-09-19T11:08:54.012Z,8.90
2018-09-19T11:11:22.560Z,7.43
2018-09-19T11:13:50.571Z,6.37
2018-09-19T11:16:18.599Z,8.50
2018-09-19T11:18:47.234Z,7.63
2018-09-19T11:21:15.706Z,7.67
2018-09-19T11:23:44.326Z,7.80
2018-09-19T11:26:12.576Z,8.53
2018-09-19T11:28:41.219Z,7.63
2018-09-19T11:31:10.817Z,5.30
2018-09-19T11:33:38.621Z,9.70
2018-09-19T11:36:06.601Z,5.87
2018-09-19T11:38:34.631Z,10.47
2018-09-19T11:41:03.233Z,10.90
2018-09-19T11:43:31.769Z,11.97
2018-09-19T11:46:00.886Z,9.80
2018-09-19T11:48:28.624Z,7.80
2018-09-19T11:50:57.064Z,7.27
2018-09-19T11:53:27.682Z,14.50
2018-09-19T11:55:56.052Z,16.13
2018-09-19T11:58:23.851Z,9.40
2018-09-19T12:00:51.953Z,12.83
2018-09-19T12:03:19.734Z,8.67
2018-09-19T12:05:48.446Z,14.03
2018-09-19T12:08:16.424Z,10.47
2018-09-19T12:10:45.026Z,8.60
2018-09-19T12:13:13.608Z,11.90
2018-09-19T12:15:41.509Z,8.80
2018-09-19T12:18:10.643Z,9.00
2018-09-19T12:20:39.049Z,16.23
2018-09-19T12:23:07.958Z,15.63
2018-09-19T12:25:35.952Z,11.23
2018-09-19T12:28:03.898Z,5.87
2018-09-19T12:30:32.476Z,14.23
2018-09-19T12:33:00.941Z,12.80
2018-09-19T12:35:29.710Z,9.43
2018-09-19T12:37:57.833Z,8.37
2018-09-19T12:40:25.649Z,7.97
2018-09-19T12:42:54.215Z,20.00
2018-09-19T12:45:23.091Z,8.00
2018-09-19T12:47:51.371Z,11.33
2018-09-19T12:50:19.348Z,16.23
2018-09-19T12:52:48.155Z,10.40
2018-09-19T12:55:15.747Z,10.20
2018-09-19T12:57:43.566Z,8.33
2018-09-19T13:00:11.230Z,13.17
2018-09-19T13:02:38.804Z,9.13
2018-09-19T13:05:06.441Z,9.50
2018-09-19T13:07:34.057Z,9.80
2018-09-19T13:10:01.618Z,8.57
2018-09-19T13:12:29.508Z,8.57
2018-09-19T13:14:57.066Z,10.77
2018-09-19T13:17:24.610Z,4.90
2018-09-19T13:19:52.137Z,6.47
2018-09-19T13:22:19.700Z,9.10
2018-09-19T13:24:47.239Z,8.37
2018-09-19T13:27:14.748Z,10.23
2018-09-19T13:29:42.320Z,7.20
2018-09-19T13:32:09.985Z,8.30
2018-09-19T13:34:37.536Z,10.10
2018-09-19T13:37:05.185Z,7.30
2018-09-19T13:39:32.930Z,8.47
2018-09-19T13:42:00.596Z,9.10
2018-09-19T13:44:28.268Z,11.83
2018-09-19T13:46:55.849Z,7.17
2018-09-19T13:49:25.727Z,12.87
2018-09-19T13:51:54.451Z,6.80
2018-09-19T13:54:22.244Z,6.57
2018-09-19T13:56:49.825Z,6.13
2018-09-19T13:59:17.384Z,8.30
2018-09-19T14:01:45.742Z,10.27
2018-09-19T14:04:14.610Z,6.97
2018-09-19T14:06:42.487Z,6.73
2018-09-19T14:09:11.617Z,6.60
2018-09-19T14:11:39.451Z,4.50
2018-09-19T14:14:07.440Z,10.73
2018-09-19T14:16:36.032Z,5.30
2018-09-19T14:19:04.266Z,8.23
2018-09-19T14:21:32.172Z,6.60
2018-09-19T14:24:00.612Z,8.20
2018-09-19T14:26:28.478Z,7.60
2018-09-19T14:28:56.569Z,7.50
2018-09-19T14:31:24.461Z,4.00
2018-09-19T14:33:52.756Z,8.53
2018-09-19T14:36:20.698Z,5.03
2018-09-19T14:38:48.689Z,8.30
2018-09-19T14:41:16.533Z,4.33
2018-09-19T14:43:45.019Z,7.90
2018-09-19T14:46:12.900Z,5.40
2018-09-19T14:48:41.633Z,6.43
2018-09-19T14:51:09.462Z,4.70
2018-09-19T14:53:37.432Z,4.80
2018-09-19T14:56:05.477Z,9.00
2018-09-19T14:58:34.101Z,11.83
2018-09-19T15:01:01.856Z,3.73
2018-09-19T15:03:30.305Z,9.27
2018-09-19T15:05:58.100Z,3.60
2018-09-19T15:08:26.487Z,9.63
2018-09-19T15:10:54.966Z,12.10
2018-09-19T15:13:22.839Z,4.60
2018-09-19T15:15:50.625Z,5.87
2018-09-19T15:18:19.787Z,7.70
2018-09-19T15:20:47.661Z,12.10
2018-09-19T15:23:16.604Z,5.40
2018-09-19T15:25:45.036Z,8.47
2018-09-19T15:28:12.822Z,7.83
2018-09-19T15:30:40.769Z,7.77
2018-09-19T15:33:09.354Z,11.70
2018-09-19T15:35:37.293Z,13.37
2018-09-19T15:38:05.287Z,7.23
2018-09-19T15:40:33.291Z,7.30
2018-09-19T15:43:02.270Z,8.90
2018-09-19T15:45:30.163Z,7.43
2018-09-19T15:47:58.041Z,9.00
2018-09-19T15:50:26.622Z,5.67
2018-09-19T15:52:54.719Z,13.33
2018-09-19T15:55:22.523Z,7.50
2018-09-19T15:57:50.423Z,6.83
2018-09-19T16:00:18.357Z,13.63
2018-09-19T16:02:46.118Z,10.60
2018-09-19T16:05:13.893Z,8.73
2018-09-19T16:07:42.273Z,8.17
2018-09-19T16:10:10.952Z,10.40
2018-09-19T16:12:38.817Z,9.40
2018-09-19T16:15:06.726Z,7.57
2018-09-19T16:17:36.010Z,11.73
2018-09-19T16:20:03.986Z,8.97
2018-09-19T16:22:31.968Z,6.23
2018-09-19T16:24:59.885Z,5.10
2018-09-19T16:27:27.862Z,10.33
2018-09-19T16:29:57.018Z,16.23
2018-09-19T16:32:25.868Z,9.37
2018-09-19T16:34:54.220Z,11.57
2018-09-19T16:37:22.100Z,13.23
2018-09-19T16:39:50.491Z,17.03
2018-09-19T16:42:18.610Z,10.33
2018-09-19T16:44:46.358Z,9.03
2018-09-19T16:47:14.466Z,9.60
2018-09-19T16:49:43.305Z,8.80
2018-09-19T16:52:11.145Z,10.33
2018-09-19T16:54:39.567Z,17.03
2018-09-19T16:57:07.404Z,8.90
2018-09-19T16:59:35.106Z,10.63
2018-09-19T17:02:03.306Z,12.33
2018-09-19T17:04:31.050Z,15.83
2018-09-19T17:06:59.407Z,14.20
2018-09-19T17:09:27.295Z,14.83
2018-09-19T17:11:54.972Z,16.87
2018-09-19T17:14:23.254Z,9.80
2018-09-19T17:16:51.323Z,15.90
2018-09-19T17:19:19.338Z,12.60
2018-09-19T17:21:47.866Z,13.40
2018-09-19T17:24:16.222Z,11.50
2018-09-19T17:26:44.057Z,14.13
2018-09-19T17:29:12.121Z,18.33
2018-09-19T17:31:40.020Z,19.87
2018-09-19T17:34:08.892Z,12.27
2018-09-19T17:36:36.554Z,14.40
2018-09-19T17:39:06.691Z,19.07
2018-09-19T17:41:34.649Z,22.20
2018-09-19T17:44:02.365Z,14.73
2018-09-19T17:46:30.990Z,19.67
2018-09-19T17:48:59.942Z,16.67
2018-09-19T17:51:28.350Z,21.07
2018-09-19T17:53:57.007Z,21.13
2018-09-19T17:56:25.074Z,18.63
2018-09-19T17:58:53.694Z,20.37
2018-09-19T18:01:21.971Z,19.67
2018-09-19T18:03:49.802Z,17.30
2018-09-19T18:06:17.565Z,19.00
2018-09-19T18:08:45.574Z,25.27
2018-09-19T18:11:13.450Z,17.43
2018-09-19T18:13:41.473Z,21.03
2018-09-19T18:16:10.112Z,23.67
2018-09-19T18:18:37.911Z,20.93
2018-09-19T18:21:06.323Z,19.40
2018-09-19T18:23:34.703Z,17.03
2018-09-19T18:26:03.172Z,29.57
2018-09-19T18:28:31.080Z,22.40
2018-09-19T18:30:59.466Z,19.83
2018-09-19T18:33:27.050Z,30.50
2018-09-19T18:35:54.681Z,17.57
2018-09-19T18:38:22.284Z,18.87
2018-09-19T18:40:49.847Z,24.30
2018-09-19T18:43:17.450Z,21.57
2018-09-19T18:45:45.065Z,23.00
2018-09-19T18:48:12.598Z,18.47
2018-09-19T18:50:40.163Z,18.20
2018-09-19T18:53:07.966Z,22.70
2018-09-19T18:55:35.960Z,24.17
2018-09-19T18:58:03.603Z,25.50
2018-09-19T19:00:32.519Z,21.17
2018-09-19T19:03:00.350Z,21.50
2018-09-19T19:05:28.170Z,25.63
2018-09-19T19:07:57.624Z,16.13
2018-09-19T19:10:25.670Z,22.53
2018-09-19T19:12:53.561Z,23.57
2018-09-19T19:15:23.011Z,24.70
2018-09-19T19:17:50.957Z,27.67
2018-09-19T19:20:18.747Z,21.83
2018-09-19T19:22:46.731Z,23.73
2018-09-19T19:25:14.398Z,15.57
2018-09-19T19:27:42.008Z,17.17
2018-09-19T19:30:09.656Z,17.90
2018-09-19T19:32:37.223Z,15.40
2018-09-19T19:35:04.821Z,24.17
2018-09-19T19:37:32.362Z,27.53
2018-09-19T19:39:59.974Z,25.10
2018-09-19T19:42:27.511Z,17.43
2018-09-19T19:44:55.204Z,18.23
2018-09-19T19:47:22.666Z,16.50
2018-09-19T19:49:50.286Z,19.43
2018-09-19T19:52:18.037Z,17.27
2018-09-19T19:54:45.534Z,26.07
2018-09-19T19:57:13.095Z,19.63
2018-09-19T19:59:40.683Z,19.60
2018-09-19T20:02:08.244Z,23.60
2018-09-19T20:04:36.107Z,22.63
2018-09-19T20:07:03.719Z,29.73
2018-09-19T20:09:31.363Z,22.23
2018-09-19T20:11:58.978Z,30.70
2018-09-19T20:14:26.594Z,15.63
2018-09-19T20:16:54.190Z,19.63
2018-09-19T20:19:22.072Z,22.37
2018-09-19T20:21:50.052Z,22.00
2018-09-19T20:24:17.633Z,15.23
2018-09-19T20:26:45.255Z,13.37
2018-09-19T20:29:12.805Z,18.37
2018-09-19T20:31:40.401Z,17.73
2018-09-19T20:34:07.995Z,15.43
2018-09-19T20:36:35.622Z,19.03
2018-09-19T20:39:04.207Z,15.17
2018-09-19T20:41:31.792Z,12.40
2018-09-19T20:43:59.349Z,22.10
2018-09-19T20:46:26.933Z,12.60
2018-09-19T20:48:54.493Z,13.83
2018-09-19T20:51:22.071Z,13.40
2018-09-19T20:53:49.645Z,16.17
2018-09-19T20:56:17.229Z,12.23
2018-09-19T20:58:44.780Z,12.77
2018-09-19T21:01:12.337Z,16.87
2018-09-19T21:03:39.893Z,12.83
2018-09-19T21:06:07.494Z,8.87
2018-09-19T21:08:35.049Z,18.03
2018-09-19T21:11:02.653Z,9.80
2018-09-19T21:13:30.304Z,18.23
2018-09-19T21:15:57.897Z,8.27
2018-09-19T21:18:25.477Z,8.67
2018-09-19T21:20:53.075Z,9.00
2018-09-19T21:23:20.644Z,8.23
2018-09-19T21:25:48.256Z,9.60
2018-09-19T21:28:15.842Z,14.80
2018-09-19T21:30:43.434Z,7.50
2018-09-19T21:33:10.994Z,11.90
2018-09-19T21:35:38.537Z,12.33
2018-09-19T21:38:06.101Z,12.20
2018-09-19T21:40:33.657Z,13.93
2018-09-19T21:43:01.159Z,10.13
2018-09-19T21:45:28.702Z,11.53
2018-09-19T21:47:56.253Z,8.93
2018-09-19T21:50:23.764Z,5.90
2018-09-19T21:52:51.353Z,4.97
2018-09-19T21:55:18.893Z,7.30
2018-09-19T21:57:46.512Z,9.37
2018-09-19T22:00:14.136Z,11.73
2018-09-19T22:02:41.666Z,11.93
2018-09-19T22:05:09.221Z,13.97
2018-09-19T22:07:36.779Z,8.03
2018-09-19T22:10:04.433Z,9.57
2018-09-19T22:12:31.939Z,9.03
2018-09-19T22:14:59.569Z,12.17
2018-09-19T22:17:27.135Z,7.90
2018-09-19T22:19:54.667Z,11.17
2018-09-19T22:22:22.242Z,11.53
2018-09-19T22:24:49.777Z,9.40
2018-09-19T22:27:17.367Z,10.40
2018-09-19T22:29:44.905Z,10.73
2018-09-19T22:32:12.495Z,11.70
2018-09-19T22:34:41.008Z,10.10
2018-09-19T22:37:08.550Z,8.87
2018-09-19T22:39:36.101Z,7.77
2018-09-19T22:42:03.661Z,7.67
2018-09-19T22:44:31.199Z,12.80
2018-09-19T22:46:58.757Z,6.93
2018-09-19T22:49:26.266Z,6.40
2018-09-19T22:51:53.812Z,3.63
2018-09-19T22:54:21.346Z,4.00
2018-09-19T22:56:48.866Z,10.43
2018-09-19T22:59:16.659Z,5.30
2018-09-19T23:01:44.279Z,10.70
2018-09-19T23:04:11.838Z,6.03
2018-09-19T23:06:39.642Z,12.90
2018-09-19T23:09:07.827Z,11.43
2018-09-19T23:11:35.371Z,9.40
2018-09-19T23:14:02.969Z,11.43
2018-09-19T23:16:30.539Z,14.10
2018-09-19T23:18:58.074Z,10.50
2018-09-19T23:21:25.627Z,6.40
2018-09-19T23:23:53.161Z,4.93
2018-09-19T23:26:20.715Z,7.97
2018-09-19T23:28:48.385Z,7.97
2018-09-19T23:31:15.918Z,7.90
2018-09-19T23:33:43.493Z,12.13
2018-09-19T23:36:11.089Z,10.90
2018-09-19T23:38:38.685Z,8.63
2018-09-19T23:41:06.258Z,8.13
2018-09-19T23:43:33.757Z,12.30
2018-09-19T23:46:01.355Z,7.67
2018-09-19T23:48:28.862Z,6.73
2018-09-19T23:50:56.383Z,8.83
2018-09-19T23:53:23.921Z,18.53
2018-09-19T23:55:51.450Z,7.13
2018-09-19T23:58:19.142Z,4.50
